createdAt,value
2023-03-05T00:04:31.132Z,24.97
2023-03-05T00:09:34.936Z,24.50
2023-03-05T00:14:38.235Z,25.45
2023-03-05T00:19:39.983Z,25.45
2023-03-05T00:24:41.860Z,26.13
2023-03-05T00:29:43.653Z,25.52
2023-03-05T00:34:45.347Z,26.07
2023-03-05T00:39:47.159Z,25.17
2023-03-05T00:44:48.844Z,25.73
2023-03-05T00:49:50.633Z,25.90
2023-03-05T00:54:52.490Z,25.20
2023-03-05T00:59:54.172Z,25.47
2023-03-05T01:04:55.855Z,25.58
2023-03-05T01:09:57.833Z,24.60
2023-03-05T01:14:59.508Z,25.67
2023-03-05T01:20:01.270Z,25.67
2023-03-05T01:25:03.018Z,26.00
2023-03-05T01:30:05.936Z,26.70
2023-03-05T01:35:08.898Z,26.42
2023-03-05T01:40:13.037Z,26.08
2023-03-05T01:45:18.460Z,26.48
2023-03-05T01:50:25.601Z,26.13
2023-03-05T01:55:29.479Z,26.85
2023-03-05T02:00:35.586Z,28.42
2023-03-05T02:05:39.134Z,26.88
2023-03-05T02:10:46.161Z,24.95
2023-03-05T02:15:49.820Z,26.80
2023-03-05T02:20:59.505Z,28.65
2023-03-05T02:26:01.172Z,26.40
2023-03-05T02:31:09.818Z,26.52
2023-03-05T02:36:12.119Z,28.45
2023-03-05T02:41:15.060Z,25.83
2023-03-05T02:46:17.710Z,26.55
2023-03-05T02:51:19.623Z,27.73
2023-03-05T02:56:22.812Z,27.40
2023-03-05T03:01:24.595Z,27.73
2023-03-05T03:06:26.691Z,26.35
2023-03-05T03:11:28.463Z,27.63
2023-03-05T03:16:30.632Z,26.38
2023-03-05T03:21:32.325Z,26.92
2023-03-05T03:26:33.976Z,27.33
2023-03-05T03:31:35.654Z,26.50
2023-03-05T03:36:37.367Z,27.10
2023-03-05T03:41:43.106Z,26.60
2023-03-05T03:46:46.553Z,26.15
2023-03-05T03:51:49.398Z,25.73
2023-03-05T03:56:51.267Z,25.58
2023-03-05T04:01:52.919Z,26.10
2023-03-05T04:06:54.696Z,26.33
2023-03-05T04:11:56.354Z,26.58
2023-03-05T04:16:58.126Z,26.55
2023-03-05T04:21:59.698Z,25.65
2023-03-05T04:27:01.436Z,26.38
2023-03-05T04:32:03.425Z,26.85
2023-03-05T04:37:05.296Z,25.83
2023-03-05T04:42:07.108Z,28.30
2023-03-05T04:47:09.003Z,27.60
2023-03-05T04:52:11.993Z,27.98
2023-03-05T04:57:13.697Z,27.42
2023-03-05T05:02:15.495Z,27.83
2023-03-05T05:07:17.206Z,26.80
2023-03-05T05:12:19.461Z,26.65
2023-03-05T05:17:21.263Z,26.80
2023-03-05T05:22:23.407Z,27.30
2023-03-05T05:27:25.164Z,27.45
2023-03-05T05:32:27.171Z,28.90
2023-03-05T05:37:29.544Z,27.77
2023-03-05T05:42:31.696Z,27.75
2023-03-05T05:47:33.421Z,26.98
2023-03-05T05:52:35.005Z,26.58
2023-03-05T05:57:36.733Z,26.80
2023-03-05T06:02:42.829Z,26.80
2023-03-05T06:07:44.491Z,26.77
2023-03-05T06:12:47.977Z,28.73
2023-03-05T06:17:49.656Z,28.23
2023-03-05T06:22:51.488Z,28.50
2023-03-05T06:27:53.160Z,28.13
2023-03-05T06:32:55.027Z,28.48
2023-03-05T06:37:56.760Z,29.10
2023-03-05T06:42:58.676Z,27.67
2023-03-05T06:48:00.519Z,28.50
2023-03-05T06:53:02.744Z,29.00
2023-03-05T06:58:04.399Z,29.50
2023-03-05T07:03:06.175Z,27.50
2023-03-05T07:08:08.552Z,28.88
2023-03-05T07:13:10.563Z,28.47
2023-03-05T07:18:12.284Z,27.60
2023-03-05T07:23:14.072Z,28.73
2023-03-05T07:28:15.924Z,27.23
2023-03-05T07:33:17.732Z,28.47
2023-03-05T07:38:19.911Z,28.42
2023-03-05T07:43:21.606Z,28.02
2023-03-05T07:53:26.450Z,26.15
2023-03-05T07:58:28.175Z,30.33
2023-03-05T08:03:29.758Z,26.95
2023-03-05T08:08:31.518Z,28.00
2023-03-05T08:13:33.714Z,28.77
2023-03-05T08:18:35.787Z,27.20
2023-03-05T08:23:37.460Z,27.90
2023-03-05T08:28:39.221Z,27.70
2023-03-05T08:33:41.281Z,27.75
2023-03-05T08:38:44.612Z,28.33
2023-03-05T08:43:46.461Z,28.25
2023-03-05T08:48:48.111Z,28.00
2023-03-05T08:53:49.944Z,27.27
2023-03-05T08:58:53.027Z,27.27
2023-03-05T09:03:54.949Z,26.05
2023-03-05T09:08:56.675Z,26.85
2023-03-05T09:13:58.398Z,27.77
2023-03-05T09:19:00.176Z,27.08
2023-03-05T09:24:02.035Z,26.30
2023-03-05T09:29:03.788Z,26.80
2023-03-05T09:34:08.182Z,27.08
2023-03-05T09:39:10.034Z,26.27
2023-03-05T09:44:35.356Z,26.93
2023-03-05T09:50:24.136Z,26.70
2023-03-05T09:55:40.509Z,25.73
2023-03-05T10:00:49.261Z,25.95
2023-03-05T10:05:59.716Z,24.33
2023-03-05T10:11:06.973Z,24.77
2023-03-05T10:16:51.384Z,25.10
2023-03-05T10:22:13.012Z,23.77
2023-03-05T10:27:21.113Z,21.75
2023-03-05T10:32:45.675Z,22.73
2023-03-05T10:37:54.023Z,23.00
2023-03-05T10:43:12.950Z,23.23
2023-03-05T10:48:28.332Z,24.75
2023-03-05T10:53:36.582Z,22.95
2023-03-05T10:58:38.264Z,24.13
2023-03-05T11:04:24.984Z,24.55
2023-03-05T11:09:29.458Z,25.25
2023-03-05T11:14:33.513Z,23.98
2023-03-05T11:19:35.363Z,24.38
2023-03-05T11:24:37.549Z,23.83
2023-03-05T11:29:48.602Z,24.30
2023-03-05T11:34:51.768Z,22.77
2023-03-05T11:45:19.144Z,23.00
2023-03-05T11:50:25.363Z,21.15
2023-03-05T11:55:48.588Z,19.63
2023-03-05T12:00:50.899Z,20.90
2023-03-05T12:06:12.886Z,20.70
2023-03-05T12:11:26.349Z,21.50
2023-03-05T12:16:30.838Z,21.20
2023-03-05T12:21:41.754Z,22.00
2023-03-05T12:26:53.543Z,21.63
2023-03-05T12:31:55.766Z,19.25
2023-03-05T12:36:57.484Z,18.45
2023-03-05T12:41:59.134Z,19.77
2023-03-05T12:47:19.136Z,18.10
2023-03-05T12:52:26.412Z,15.88
2023-03-05T12:57:29.983Z,16.27
2023-03-05T13:02:36.647Z,15.43
2023-03-05T13:07:38.520Z,13.77
2023-03-05T13:12:40.449Z,14.73
2023-03-05T13:17:53.009Z,10.57
2023-03-05T13:23:04.903Z,10.00
2023-03-05T13:28:13.014Z,10.97
2023-03-05T13:33:20.218Z,9.98
2023-03-05T13:38:36.623Z,11.68
2023-03-05T13:43:54.724Z,11.30
2023-03-05T13:48:58.367Z,9.85
2023-03-05T13:54:00.131Z,9.88
2023-03-05T13:59:01.965Z,10.40
2023-03-05T14:04:08.255Z,10.20
2023-03-05T14:09:25.062Z,10.77
2023-03-05T14:14:27.911Z,10.57
2023-03-05T14:19:39.364Z,10.07
2023-03-05T14:24:51.868Z,11.02
2023-03-05T14:29:53.888Z,11.27
2023-03-05T14:34:59.421Z,10.43
2023-03-05T14:40:32.494Z,10.98
2023-03-05T14:45:37.397Z,11.13
2023-03-05T14:50:51.598Z,11.45
2023-03-05T14:55:57.690Z,11.77
2023-03-05T15:00:59.421Z,11.70
2023-03-05T15:06:01.687Z,12.40
2023-03-05T15:11:03.859Z,12.80
2023-03-05T15:16:06.919Z,11.88
2023-03-05T15:21:08.960Z,11.85
2023-03-05T15:26:14.091Z,13.13
2023-03-05T15:31:17.518Z,12.70
2023-03-05T15:41:22.202Z,12.73
2023-03-05T15:46:23.995Z,11.40
2023-03-05T15:51:25.674Z,11.65
2023-03-05T15:56:27.509Z,11.32
2023-03-05T16:01:29.199Z,11.45
2023-03-05T16:06:31.939Z,11.45
2023-03-05T16:11:37.496Z,11.02
2023-03-05T16:16:39.483Z,11.10
2023-03-05T16:21:41.335Z,11.67
2023-03-05T16:26:43.218Z,12.37
2023-03-05T16:31:45.410Z,11.63
2023-03-05T16:36:50.786Z,11.20
2023-03-05T16:41:53.109Z,11.13
2023-03-05T16:46:56.320Z,11.13
2023-03-05T16:52:01.337Z,11.77
2023-03-05T16:57:09.292Z,11.55
2023-03-05T17:02:13.042Z,11.32
2023-03-05T17:07:14.742Z,12.27
2023-03-05T17:12:16.337Z,12.57
2023-03-05T17:17:18.054Z,12.10
2023-03-05T17:22:19.839Z,11.68
2023-03-05T17:27:23.360Z,12.85
2023-03-05T17:32:25.178Z,13.23
2023-03-05T17:37:27.468Z,15.43
2023-03-05T17:42:29.156Z,15.15
2023-03-05T17:47:33.074Z,15.05
2023-03-05T17:52:38.229Z,14.05
2023-03-05T17:57:41.509Z,14.90
2023-03-05T18:02:43.507Z,14.63
2023-03-05T18:07:45.484Z,16.73
2023-03-05T18:12:48.100Z,17.77
2023-03-05T18:17:50.370Z,16.08
2023-03-05T18:22:52.452Z,17.65
2023-03-05T18:27:54.194Z,24.48
2023-03-05T18:32:56.107Z,16.70
2023-03-05T18:37:57.796Z,16.08
2023-03-05T18:43:01.424Z,15.50
2023-03-05T18:48:03.579Z,13.93
2023-03-05T18:53:05.333Z,14.23
2023-03-05T18:58:07.062Z,14.05
2023-03-05T19:03:08.981Z,13.63
2023-03-05T19:08:11.249Z,12.33
2023-03-05T19:13:28.685Z,13.25
2023-03-05T19:18:33.713Z,14.77
2023-03-05T19:23:35.597Z,13.57
2023-03-05T19:28:37.234Z,11.97
2023-03-05T19:33:38.935Z,13.50
2023-03-05T19:38:40.828Z,14.45
2023-03-05T19:43:42.595Z,13.73
2023-03-05T19:48:44.490Z,13.95
2023-03-05T19:53:47.591Z,14.50
2023-03-05T19:58:49.321Z,13.38
2023-03-05T20:03:53.857Z,16.50
2023-03-05T20:08:56.686Z,14.55
2023-03-05T20:13:58.699Z,13.93
2023-03-05T20:19:02.956Z,13.50
2023-03-05T20:24:09.925Z,17.70
2023-03-05T20:29:15.437Z,15.90
2023-03-05T20:34:19.773Z,14.80
2023-03-05T20:44:23.364Z,12.75
2023-03-05T20:49:25.341Z,12.55
2023-03-05T20:54:28.056Z,13.07
2023-03-05T21:04:31.521Z,13.02
2023-03-05T21:09:33.257Z,14.40
2023-03-05T21:14:37.933Z,12.93
2023-03-05T21:19:39.888Z,13.43
2023-03-05T21:25:01.967Z,18.47
2023-03-05T21:30:04.431Z,19.27
2023-03-05T21:35:06.674Z,15.45
2023-03-05T21:40:17.688Z,15.25
2023-03-05T21:45:22.838Z,18.98
2023-03-05T21:50:25.879Z,16.35
2023-03-05T21:55:32.962Z,16.05
2023-03-05T22:00:34.720Z,16.48
2023-03-05T22:05:36.512Z,17.30
2023-03-05T22:10:40.046Z,16.45
2023-03-05T22:15:46.145Z,16.38
2023-03-05T22:20:48.226Z,15.45
2023-03-05T22:25:57.130Z,14.82
2023-03-05T22:30:59.095Z,17.35
2023-03-05T22:36:07.519Z,16.17
2023-03-05T22:41:11.493Z,17.23
2023-03-05T22:46:19.749Z,16.27
2023-03-05T22:51:21.508Z,15.63
2023-03-05T22:56:23.365Z,15.02
2023-03-05T23:01:26.458Z,15.52
2023-03-05T23:06:28.155Z,16.08
2023-03-05T23:11:30.100Z,15.45
2023-03-05T23:16:31.843Z,16.83
2023-03-05T23:21:33.563Z,15.25
2023-03-05T23:26:35.288Z,14.63
2023-03-05T23:31:37.041Z,14.13
2023-03-05T23:36:39.022Z,16.30
2023-03-05T23:41:40.724Z,16.03
2023-03-05T23:46:42.396Z,15.27
2023-03-05T23:51:44.089Z,15.25
2023-03-05T23:56:45.845Z,13.13
